Stryker, Ohio
Current Conditions -  °F | °C
As of 6:53 PM on Saturday 22 Nov 2014 (Local Time) from KDFI Reporting Station
Light Rain Light Rain  
Wind Chill: 50°   Ceiling: 9000
Heat Index: 50°   Visibility: 10mi
Dew Point: 42°   Wind: 16mph
Humidity: 74%   Direction: 200°SSW
Pressure: 29.98"   Gusts: NA
Location:  41.5°N, 84.41°W
Report Text: KDFI 222353Z AUTO 20014KT 10SM -RA FEW033 SCT050 OVC090 10/06 A2998 RMK AO2 RAB46 SLP155 P0000 60002 T01000056 10100 20078 56004
Loading
Personal Weather Stations






























Interactive Weather Map New forecast layout! Learn more

10-Day Weather Forecast

Advertisements
Track Severe Weather on mobile